createdAt,value
2023-04-30T00:01:38.179Z,98311.84
2023-04-30T00:04:08.299Z,98311.56
2023-04-30T00:06:37.469Z,98309.91
2023-04-30T00:09:06.941Z,98298.00
2023-04-30T00:11:36.348Z,98298.81
2023-04-30T00:14:05.419Z,98299.66
2023-04-30T00:16:35.042Z,98305.06
2023-04-30T00:19:04.615Z,98308.53
2023-04-30T00:21:34.147Z,98306.75
2023-04-30T00:24:03.800Z,98295.84
2023-04-30T00:26:32.942Z,98298.22
2023-04-30T00:29:02.089Z,98298.78
2023-04-30T00:31:32.041Z,98297.69
2023-04-30T00:34:01.332Z,98302.00
2023-04-30T00:36:30.462Z,98301.44
2023-04-30T00:39:00.230Z,98306.63
2023-04-30T00:41:30.957Z,98306.94
2023-04-30T00:44:00.531Z,98303.94
2023-04-30T00:46:29.758Z,98301.31
2023-04-30T00:49:01.340Z,98316.38
2023-04-30T00:51:31.183Z,98310.50
2023-04-30T00:54:04.905Z,98302.63
2023-04-30T00:56:34.551Z,98297.97
2023-04-30T00:59:03.694Z,98292.06
2023-04-30T01:01:34.218Z,98294.69
2023-04-30T01:04:03.603Z,98281.72
2023-04-30T01:06:33.195Z,98278.25
2023-04-30T01:09:02.863Z,98264.72
2023-04-30T01:11:50.928Z,98257.84
2023-04-30T01:14:34.696Z,98245.63
2023-04-30T01:17:22.283Z,98244.25
2023-04-30T01:19:52.269Z,98249.63
2023-04-30T01:22:30.518Z,98248.53
2023-04-30T01:25:23.260Z,98265.22
2023-04-30T01:28:07.941Z,98269.50
2023-04-30T01:30:39.725Z,98274.63
2023-04-30T01:33:09.254Z,98275.38
2023-04-30T01:36:10.072Z,98281.56
2023-04-30T01:39:22.145Z,98291.81
2023-04-30T01:42:18.211Z,98302.75
2023-04-30T01:45:19.001Z,98305.38
2023-04-30T01:47:59.454Z,98314.28
2023-04-30T01:50:40.992Z,98317.59
2023-04-30T01:53:15.498Z,98318.13
2023-04-30T01:56:07.395Z,98323.50
2023-04-30T01:58:39.299Z,98321.81
2023-04-30T02:01:08.648Z,98324.47
2023-04-30T02:03:38.122Z,98316.25
2023-04-30T02:06:07.470Z,98320.91
2023-04-30T02:08:36.960Z,98336.38
2023-04-30T02:11:07.323Z,98338.19
2023-04-30T02:13:37.473Z,98347.31
2023-04-30T02:16:07.758Z,98351.75
2023-04-30T02:18:37.027Z,98355.09
2023-04-30T02:21:06.136Z,98368.06
2023-04-30T02:23:35.430Z,98383.41
2023-04-30T02:26:05.102Z,98381.09
2023-04-30T02:28:34.573Z,98382.16
2023-04-30T02:31:03.567Z,98378.09
2023-04-30T02:33:32.962Z,98389.75
2023-04-30T02:36:02.864Z,98393.31
2023-04-30T02:38:32.178Z,98392.66
2023-04-30T02:41:01.472Z,98389.91
2023-04-30T02:43:30.682Z,98394.66
2023-04-30T02:46:00.237Z,98394.00
2023-04-30T02:48:29.488Z,98392.34
2023-04-30T02:50:58.675Z,98385.09
2023-04-30T02:53:28.139Z,98391.19
2023-04-30T02:55:57.564Z,98389.94
2023-04-30T02:58:27.848Z,98393.34
2023-04-30T03:00:58.260Z,98386.03
2023-04-30T03:03:28.059Z,98393.44
2023-04-30T03:06:00.455Z,98403.66
2023-04-30T03:08:30.070Z,98407.25
2023-04-30T03:10:59.960Z,98405.00
2023-04-30T03:13:29.593Z,98411.44
2023-04-30T03:16:00.837Z,98410.34
2023-04-30T03:18:31.075Z,98413.28
2023-04-30T03:21:00.444Z,98402.50
2023-04-30T03:23:30.561Z,98410.97
2023-04-30T03:25:59.996Z,98410.72
2023-04-30T03:28:29.115Z,98422.31
2023-04-30T03:30:58.548Z,98419.81
2023-04-30T03:33:28.550Z,98426.50
2023-04-30T03:35:57.946Z,98432.69
2023-04-30T03:38:27.738Z,98431.13
2023-04-30T03:40:56.886Z,98423.59
2023-04-30T03:43:26.266Z,98425.50
2023-04-30T03:45:55.591Z,98438.16
2023-04-30T03:48:25.732Z,98433.84
2023-04-30T03:50:56.097Z,98442.78
2023-04-30T03:53:27.581Z,98445.03
2023-04-30T03:56:05.201Z,98438.69
2023-04-30T03:58:34.582Z,98439.50
2023-04-30T04:01:03.797Z,98444.88
2023-04-30T04:03:35.586Z,98446.09
2023-04-30T04:06:06.588Z,98442.94
2023-04-30T04:08:35.856Z,98436.63
2023-04-30T04:11:05.759Z,98434.25
2023-04-30T04:13:35.202Z,98431.75
2023-04-30T04:16:04.370Z,98442.00
2023-04-30T04:18:33.820Z,98447.66
2023-04-30T04:21:02.898Z,98450.84
2023-04-30T04:23:33.350Z,98445.34
2023-04-30T04:26:02.744Z,98444.66
2023-04-30T04:28:32.185Z,98440.34
2023-04-30T04:31:01.686Z,98430.44
2023-04-30T04:33:31.148Z,98434.94
2023-04-30T04:36:00.397Z,98433.31
2023-04-30T04:38:29.651Z,98443.22
2023-04-30T04:40:59.143Z,98446.13
2023-04-30T04:43:29.211Z,98445.66
2023-04-30T04:45:59.349Z,98451.91
2023-04-30T04:48:28.451Z,98449.84
2023-04-30T04:50:58.478Z,98449.66
2023-04-30T04:53:27.819Z,98450.25
2023-04-30T04:55:57.875Z,98452.03
2023-04-30T04:58:28.169Z,98452.22
2023-04-30T05:00:58.658Z,98445.88
2023-04-30T05:03:29.844Z,98433.78
2023-04-30T05:05:59.825Z,98440.78
2023-04-30T05:08:29.140Z,98440.41
2023-04-30T05:10:59.378Z,98438.53
2023-04-30T05:13:28.517Z,98441.31
2023-04-30T05:15:57.743Z,98437.44
2023-04-30T05:18:27.161Z,98435.16
2023-04-30T05:20:56.358Z,98422.03
2023-04-30T05:23:25.855Z,98426.50
2023-04-30T05:25:56.550Z,98419.00
2023-04-30T05:28:26.511Z,98420.59
2023-04-30T05:30:55.998Z,98416.78
2023-04-30T05:33:25.682Z,98413.78
2023-04-30T05:35:54.934Z,98420.41
2023-04-30T05:38:24.471Z,98414.44
2023-04-30T05:40:53.771Z,98413.50
2023-04-30T05:43:22.707Z,98408.78
2023-04-30T05:45:52.108Z,98411.25
2023-04-30T05:48:21.507Z,98405.28
2023-04-30T05:50:51.110Z,98401.25
2023-04-30T05:53:20.752Z,98402.53
2023-04-30T05:55:49.856Z,98398.59
2023-04-30T05:58:19.599Z,98403.28
2023-04-30T06:00:54.014Z,98393.84
2023-04-30T06:03:23.603Z,98402.88
2023-04-30T06:05:53.153Z,98397.38
2023-04-30T06:08:22.410Z,98401.22
2023-04-30T06:10:52.767Z,98392.34
2023-04-30T06:13:22.391Z,98393.59
2023-04-30T06:15:51.580Z,98393.09
2023-04-30T06:18:21.575Z,98394.25
2023-04-30T06:20:51.254Z,98392.94
2023-04-30T06:23:20.832Z,98389.50
2023-04-30T06:25:50.882Z,98384.88
2023-04-30T06:28:20.328Z,98385.81
2023-04-30T06:30:49.660Z,98382.72
2023-04-30T06:33:18.690Z,98380.25
2023-04-30T06:35:48.820Z,98368.25
2023-04-30T06:38:21.176Z,98369.75
2023-04-30T06:40:51.394Z,98375.75
2023-04-30T06:43:20.615Z,98377.38
2023-04-30T06:45:50.135Z,98379.94
2023-04-30T06:48:19.781Z,98368.75
2023-04-30T06:50:49.036Z,98375.44
2023-04-30T06:53:19.325Z,98365.75
2023-04-30T06:55:50.178Z,98371.19
2023-04-30T06:58:21.067Z,98368.91
2023-04-30T07:00:50.362Z,98372.47
2023-04-30T07:03:19.862Z,98381.13
2023-04-30T07:05:49.796Z,98378.91
2023-04-30T07:08:18.902Z,98375.56
2023-04-30T07:10:48.334Z,98371.13
2023-04-30T07:13:17.734Z,98369.34
2023-04-30T07:15:47.402Z,98363.88
2023-04-30T07:18:17.558Z,98361.06
2023-04-30T07:20:46.894Z,98361.41
2023-04-30T07:23:17.108Z,98356.03
2023-04-30T07:25:46.594Z,98343.25
2023-04-30T07:28:16.193Z,98361.44
2023-04-30T07:30:45.935Z,98353.13
2023-04-30T07:33:15.783Z,98352.75
2023-04-30T07:35:46.339Z,98349.56
2023-04-30T07:38:16.351Z,98352.72
2023-04-30T07:40:45.706Z,98350.78
2023-04-30T07:43:15.350Z,98343.72
2023-04-30T07:45:45.628Z,98334.75
2023-04-30T07:48:15.252Z,98338.47
2023-04-30T07:50:44.745Z,98330.94
2023-04-30T07:53:13.973Z,98324.56
2023-04-30T07:55:43.307Z,98322.56
2023-04-30T07:58:12.999Z,98320.22
2023-04-30T08:00:42.888Z,98314.88
2023-04-30T08:03:13.453Z,98316.13
2023-04-30T08:05:43.440Z,98306.84
2023-04-30T08:08:12.580Z,98303.72
2023-04-30T08:10:42.980Z,98302.78
2023-04-30T08:13:12.525Z,98299.75
2023-04-30T08:15:41.966Z,98290.34
2023-04-30T08:18:11.791Z,98292.13
2023-04-30T08:20:41.295Z,98281.03
2023-04-30T08:23:10.593Z,98285.00
2023-04-30T08:25:39.954Z,98280.66
2023-04-30T08:28:10.267Z,98269.59
2023-04-30T08:30:41.484Z,98268.91
2023-04-30T08:33:11.207Z,98256.81
2023-04-30T08:35:40.719Z,98257.34
2023-04-30T08:38:10.078Z,98253.81
2023-04-30T08:40:50.856Z,98248.66
2023-04-30T08:43:21.753Z,98248.44
2023-04-30T08:45:53.509Z,98246.13
2023-04-30T08:48:25.133Z,98236.19
2023-04-30T08:50:54.561Z,98243.56
2023-04-30T08:53:24.047Z,98231.16
2023-04-30T08:55:54.130Z,98225.84
2023-04-30T08:58:23.577Z,98224.25
2023-04-30T09:00:52.635Z,98213.97
2023-04-30T09:03:24.809Z,98200.66
2023-04-30T09:05:54.174Z,98206.91
2023-04-30T09:08:52.323Z,98197.97
2023-04-30T09:11:27.890Z,98191.75
2023-04-30T09:13:59.994Z,98185.06
2023-04-30T09:16:33.919Z,98174.44
2023-04-30T09:19:04.168Z,98176.69
2023-04-30T09:21:37.810Z,98162.38
2023-04-30T09:24:07.950Z,98156.44
2023-04-30T09:26:40.760Z,98148.94
2023-04-30T09:29:11.514Z,98142.03
2023-04-30T09:31:46.029Z,98130.34
2023-04-30T09:34:16.459Z,98129.41
2023-04-30T09:36:56.425Z,98122.50
2023-04-30T09:39:26.003Z,98104.53
2023-04-30T09:42:08.654Z,98096.38
2023-04-30T09:44:42.889Z,98089.31
2023-04-30T09:47:19.324Z,98085.09
2023-04-30T09:49:53.566Z,98076.06
2023-04-30T09:52:23.862Z,98064.50
2023-04-30T09:54:53.600Z,98065.16
2023-04-30T09:57:25.522Z,98058.19
2023-04-30T09:59:56.064Z,98059.97
2023-04-30T10:02:27.030Z,98035.59
2023-04-30T10:04:59.844Z,98040.72
2023-04-30T10:07:37.912Z,98036.66
2023-04-30T10:10:12.458Z,98032.66
2023-04-30T10:12:50.154Z,98029.44
2023-04-30T10:15:27.032Z,98017.34
2023-04-30T10:18:04.058Z,98014.94
2023-04-30T10:20:40.678Z,98010.03
2023-04-30T10:23:10.372Z,98006.31
2023-04-30T10:25:42.164Z,98001.38
2023-04-30T10:28:12.560Z,98002.13
2023-04-30T10:30:46.992Z,97995.91
2023-04-30T10:33:17.609Z,97987.13
2023-04-30T10:35:49.775Z,97973.78
2023-04-30T10:38:26.165Z,97974.47
2023-04-30T10:41:01.091Z,97965.84
2023-04-30T10:43:34.373Z,97964.50
2023-04-30T10:46:05.246Z,97961.25
2023-04-30T10:48:37.212Z,97962.38
2023-04-30T10:51:07.326Z,97959.97
2023-04-30T10:53:41.480Z,97957.25
2023-04-30T10:56:11.100Z,97956.44
2023-04-30T10:58:42.618Z,97955.72
2023-04-30T11:01:16.712Z,97952.66
2023-04-30T11:04:09.997Z,97958.25
2023-04-30T11:06:55.286Z,97953.97
2023-04-30T11:09:39.622Z,97939.59
2023-04-30T11:12:17.632Z,97941.34
2023-04-30T11:14:48.449Z,97940.38
2023-04-30T11:17:29.870Z,97937.50
2023-04-30T11:20:03.059Z,97934.91
2023-04-30T11:22:37.072Z,97932.06
2023-04-30T11:25:10.960Z,97931.31
2023-04-30T11:27:45.887Z,97933.56
2023-04-30T11:30:20.494Z,97937.19
2023-04-30T11:32:51.453Z,97933.25
2023-04-30T11:35:21.508Z,97929.69
2023-04-30T11:37:50.930Z,97939.97
2023-04-30T11:40:21.948Z,97943.50
2023-04-30T11:42:52.240Z,97944.47
2023-04-30T11:45:22.084Z,97934.84
2023-04-30T11:47:53.498Z,97942.47
2023-04-30T11:50:31.022Z,97943.59
2023-04-30T11:53:06.272Z,97940.41
2023-04-30T11:55:35.951Z,97942.97
2023-04-30T11:58:06.080Z,97949.41
2023-04-30T12:00:35.875Z,97945.41
2023-04-30T12:03:09.960Z,97943.84
2023-04-30T12:05:43.225Z,97945.44
2023-04-30T12:08:14.249Z,97946.44
2023-04-30T12:10:44.426Z,97946.63
2023-04-30T12:13:18.152Z,97951.16
2023-04-30T12:16:00.609Z,97951.81
2023-04-30T12:18:30.268Z,97948.78
2023-04-30T12:21:00.518Z,97947.19
2023-04-30T12:23:30.087Z,97951.34
2023-04-30T12:26:01.662Z,97948.34
2023-04-30T12:28:31.034Z,97946.31
2023-04-30T12:31:01.342Z,97952.06
2023-04-30T12:33:34.479Z,97960.75
2023-04-30T12:36:04.043Z,97960.56
2023-04-30T12:38:33.229Z,97965.09
2023-04-30T12:41:06.614Z,97966.56
2023-04-30T12:43:36.083Z,97963.34
2023-04-30T12:46:05.653Z,97963.88
2023-04-30T12:48:48.999Z,97966.31
2023-04-30T12:51:21.675Z,97978.16
2023-04-30T12:53:51.104Z,97981.56
2023-04-30T12:56:21.314Z,97988.00
2023-04-30T12:58:52.242Z,97985.44
2023-04-30T13:01:26.338Z,97990.47
2023-04-30T13:03:56.189Z,97992.56
2023-04-30T13:06:25.637Z,97995.00
2023-04-30T13:08:58.662Z,97993.56
2023-04-30T13:11:28.452Z,98000.47
2023-04-30T13:13:58.005Z,97999.53
2023-04-30T13:16:27.970Z,98007.84
2023-04-30T13:18:57.758Z,98009.16
2023-04-30T13:21:27.608Z,98014.75
2023-04-30T13:23:58.482Z,98010.59
2023-04-30T13:26:30.802Z,98013.66
2023-04-30T13:29:00.860Z,98013.16
2023-04-30T13:31:30.694Z,98012.81
2023-04-30T13:33:59.935Z,98022.88
2023-04-30T13:36:30.041Z,98022.53
2023-04-30T13:39:00.032Z,98031.03
2023-04-30T13:41:30.504Z,98025.25
2023-04-30T13:44:01.111Z,98038.97
2023-04-30T13:46:31.934Z,98038.66
2023-04-30T13:49:01.293Z,98040.13
2023-04-30T13:51:30.478Z,98051.28
2023-04-30T13:54:00.459Z,98042.78
2023-04-30T13:56:30.418Z,98041.19
2023-04-30T13:58:59.940Z,98044.63
2023-04-30T14:01:30.047Z,98049.72
2023-04-30T14:04:00.325Z,98044.41
2023-04-30T14:06:30.396Z,98058.13
2023-04-30T14:08:59.750Z,98059.25
2023-04-30T14:11:29.229Z,98059.41
2023-04-30T14:13:59.207Z,98053.63
2023-04-30T14:16:28.512Z,98045.66
2023-04-30T14:18:57.946Z,98055.19
2023-04-30T14:21:29.708Z,98043.38
2023-04-30T14:23:59.381Z,98049.09
2023-04-30T14:26:28.523Z,98048.63
2023-04-30T14:28:58.610Z,98054.84
2023-04-30T14:31:28.364Z,98053.06
2023-04-30T14:33:58.005Z,98060.25
2023-04-30T14:36:28.795Z,98061.66
2023-04-30T14:38:58.080Z,98066.28
2023-04-30T14:41:27.391Z,98062.09
2023-04-30T14:43:57.149Z,98061.78
2023-04-30T14:46:27.333Z,98059.06
2023-04-30T14:48:57.010Z,98064.50
2023-04-30T14:51:27.017Z,98058.88
2023-04-30T14:53:56.690Z,98067.34
2023-04-30T14:56:26.680Z,98067.66
2023-04-30T14:58:55.707Z,98069.41
2023-04-30T15:01:26.512Z,98070.78
2023-04-30T15:03:57.523Z,98070.41
2023-04-30T15:06:27.435Z,98074.53
2023-04-30T15:08:57.352Z,98074.03
2023-04-30T15:11:27.772Z,98086.34
2023-04-30T15:13:57.329Z,98086.94
2023-04-30T15:16:27.708Z,98090.44
2023-04-30T15:18:56.888Z,98092.97
2023-04-30T15:21:27.824Z,98095.19
2023-04-30T15:23:57.678Z,98096.31
2023-04-30T15:26:27.263Z,98102.84
2023-04-30T15:28:59.657Z,98101.25
2023-04-30T15:31:29.611Z,98100.13
2023-04-30T15:33:58.754Z,98109.38
2023-04-30T15:36:28.808Z,98113.81
2023-04-30T15:38:58.225Z,98115.91
2023-04-30T15:41:27.503Z,98118.75
2023-04-30T15:43:57.268Z,98123.69
2023-04-30T15:46:26.841Z,98126.59
2023-04-30T15:48:56.411Z,98129.59
2023-04-30T15:51:26.065Z,98134.25
2023-04-30T15:53:55.672Z,98142.69
2023-04-30T15:56:27.800Z,98130.50
2023-04-30T15:58:57.628Z,98146.00
2023-04-30T16:01:27.002Z,98142.50
2023-04-30T16:03:57.272Z,98141.16
2023-04-30T16:06:28.262Z,98147.22
2023-04-30T16:08:58.616Z,98149.22
2023-04-30T16:11:28.036Z,98153.03
2023-04-30T16:13:57.550Z,98159.09
2023-04-30T16:16:28.087Z,98159.38
2023-04-30T16:18:58.224Z,98162.31
2023-04-30T16:21:28.489Z,98163.22
2023-04-30T16:23:58.605Z,98166.41
2023-04-30T16:26:27.800Z,98167.03
2023-04-30T16:28:57.242Z,98170.38
2023-04-30T16:31:26.651Z,98172.56
2023-04-30T16:33:58.616Z,98175.78
2023-04-30T16:36:29.137Z,98181.69
2023-04-30T16:38:58.656Z,98175.28
2023-04-30T16:41:28.019Z,98183.50
2023-04-30T16:43:58.130Z,98185.69
2023-04-30T16:46:28.848Z,98178.09
2023-04-30T16:48:59.436Z,98186.22
2023-04-30T16:51:28.790Z,98168.91
2023-04-30T16:53:57.925Z,98167.31
2023-04-30T16:56:28.407Z,98159.41
2023-04-30T16:58:58.052Z,98158.88
2023-04-30T17:01:28.281Z,98165.91
2023-04-30T17:03:58.074Z,98164.09
2023-04-30T17:06:27.917Z,98158.50
2023-04-30T17:08:58.177Z,98166.50
2023-04-30T17:11:27.872Z,98158.16
2023-04-30T17:13:59.416Z,98160.06
2023-04-30T17:16:28.973Z,98155.97
2023-04-30T17:18:58.492Z,98164.00
2023-04-30T17:21:30.057Z,98163.69
2023-04-30T17:24:00.216Z,98167.81
2023-04-30T17:26:30.512Z,98164.59
2023-04-30T17:29:00.509Z,98159.69
2023-04-30T17:31:32.368Z,98164.09
2023-04-30T17:34:01.982Z,98166.00
2023-04-30T17:36:31.971Z,98159.97
2023-04-30T17:39:05.210Z,98160.19
2023-04-30T17:41:34.471Z,98162.19
2023-04-30T17:44:04.254Z,98158.06
2023-04-30T17:46:33.773Z,98164.59
2023-04-30T17:49:04.746Z,98148.94
2023-04-30T17:51:35.048Z,98145.50
2023-04-30T17:54:04.685Z,98140.50
2023-04-30T17:56:34.568Z,98136.91
2023-04-30T17:59:05.251Z,98139.09
2023-04-30T18:01:36.013Z,98138.09
2023-04-30T18:04:10.198Z,98134.91
2023-04-30T18:06:40.130Z,98131.97
2023-04-30T18:09:10.920Z,98125.84
2023-04-30T18:11:41.087Z,98112.22
2023-04-30T18:14:10.941Z,98113.22
2023-04-30T18:16:43.476Z,98110.88
2023-04-30T18:19:14.124Z,98109.50
2023-04-30T18:21:44.390Z,98123.94
2023-04-30T18:24:14.673Z,98113.22
2023-04-30T18:26:43.852Z,98125.94
2023-04-30T18:29:17.720Z,98133.28
2023-04-30T18:31:48.216Z,98134.47
2023-04-30T18:34:18.207Z,98129.84
2023-04-30T18:36:48.898Z,98133.88
2023-04-30T18:39:18.647Z,98136.88
2023-04-30T18:41:49.030Z,98132.56
2023-04-30T18:44:19.358Z,98128.03
2023-04-30T18:46:49.406Z,98134.56
2023-04-30T18:49:19.764Z,98129.66
2023-04-30T18:51:49.511Z,98125.22
2023-04-30T18:54:19.365Z,98132.28
2023-04-30T18:56:49.190Z,98128.84
2023-04-30T18:59:20.580Z,98125.03
2023-04-30T19:01:54.172Z,98125.53
2023-04-30T19:04:24.237Z,98122.81
2023-04-30T19:06:56.282Z,98114.00
2023-04-30T19:09:28.630Z,98110.53
2023-04-30T19:11:59.328Z,98111.06
2023-04-30T19:14:29.773Z,98101.25
2023-04-30T19:16:59.917Z,98096.75
2023-04-30T19:19:30.784Z,98109.47
2023-04-30T19:22:01.936Z,98105.97
2023-04-30T19:24:32.842Z,98097.22
2023-04-30T19:27:05.296Z,98094.09
2023-04-30T19:29:36.567Z,98090.50
2023-04-30T19:32:07.322Z,98091.06
2023-04-30T19:34:37.578Z,98100.31
2023-04-30T19:37:07.494Z,98088.97
2023-04-30T19:39:37.863Z,98090.88
2023-04-30T19:42:09.774Z,98097.19
2023-04-30T19:44:39.962Z,98093.91
2023-04-30T19:47:09.658Z,98088.47
2023-04-30T19:49:39.226Z,98094.09
2023-04-30T19:52:10.436Z,98094.78
2023-04-30T19:54:40.135Z,98100.50
2023-04-30T19:57:09.788Z,98100.78
2023-04-30T19:59:39.089Z,98099.09
2023-04-30T20:02:09.314Z,98101.41
2023-04-30T20:04:39.198Z,98113.06
2023-04-30T20:07:09.390Z,98144.75
2023-04-30T20:09:38.734Z,98159.47
2023-04-30T20:12:08.364Z,98155.00
2023-04-30T20:14:37.696Z,98143.75
2023-04-30T20:17:07.671Z,98137.31
2023-04-30T20:19:37.225Z,98147.06
2023-04-30T20:22:14.117Z,98158.25
2023-04-30T20:24:46.444Z,98156.41
2023-04-30T20:27:16.347Z,98148.69
2023-04-30T20:29:45.938Z,98143.84
2023-04-30T20:32:15.688Z,98159.06
2023-04-30T20:34:44.983Z,98148.66
2023-04-30T20:37:15.058Z,98141.97
2023-04-30T20:39:44.902Z,98144.88
2023-04-30T20:42:15.426Z,98151.91
2023-04-30T20:44:45.124Z,98153.47
2023-04-30T20:47:15.718Z,98146.38
2023-04-30T20:49:45.004Z,98134.53
2023-04-30T20:52:15.485Z,98134.75
2023-04-30T20:54:45.809Z,98137.47
2023-04-30T20:57:15.990Z,98140.16
2023-04-30T20:59:45.802Z,98141.56
2023-04-30T21:02:15.092Z,98150.56
2023-04-30T21:04:45.025Z,98146.78
2023-04-30T21:07:14.187Z,98144.13
2023-04-30T21:09:44.036Z,98136.09
2023-04-30T21:12:14.023Z,98131.47
2023-04-30T21:14:43.719Z,98128.13
2023-04-30T21:17:13.322Z,98129.84
2023-04-30T21:19:43.263Z,98126.38
2023-04-30T21:22:12.741Z,98127.97
2023-04-30T21:24:41.978Z,98136.00
2023-04-30T21:27:12.241Z,98131.97
2023-04-30T21:29:44.971Z,98137.44
2023-04-30T21:32:14.811Z,98136.63
2023-04-30T21:34:45.114Z,98132.56
2023-04-30T21:37:16.917Z,98143.88
2023-04-30T21:39:47.438Z,98144.63
2023-04-30T21:42:16.607Z,98145.69
2023-04-30T21:44:46.028Z,98144.59
2023-04-30T21:47:15.303Z,98157.56
2023-04-30T21:49:44.416Z,98152.41
2023-04-30T21:52:13.793Z,98161.63
2023-04-30T21:54:43.508Z,98146.28
2023-04-30T21:57:12.690Z,98156.28
2023-04-30T21:59:43.047Z,98147.16
2023-04-30T22:02:22.899Z,98148.81
2023-04-30T22:04:54.575Z,98149.38
2023-04-30T22:07:24.026Z,98151.75
2023-04-30T22:09:53.757Z,98160.66
2023-04-30T22:12:26.219Z,98172.00
2023-04-30T22:14:56.973Z,98174.72
2023-04-30T22:17:27.535Z,98161.25
2023-04-30T22:19:58.425Z,98162.00
2023-04-30T22:22:28.126Z,98156.06
2023-04-30T22:24:57.728Z,98161.47
2023-04-30T22:27:27.080Z,98146.59
2023-04-30T22:29:56.971Z,98148.72
2023-04-30T22:32:27.328Z,98143.59
2023-04-30T22:34:56.665Z,98131.47
2023-04-30T22:37:27.608Z,98123.38
2023-04-30T22:39:57.190Z,98112.03
2023-04-30T22:42:27.506Z,98118.47
2023-04-30T22:44:57.087Z,98112.94
2023-04-30T22:47:28.857Z,98109.09
2023-04-30T22:49:58.738Z,98113.63
2023-04-30T22:52:30.800Z,98118.78
2023-04-30T22:55:03.132Z,98125.91
2023-04-30T22:57:32.691Z,98131.09
2023-04-30T23:00:01.959Z,98132.97
2023-04-30T23:02:31.645Z,98131.59
2023-04-30T23:05:00.727Z,98131.38
2023-04-30T23:07:29.838Z,98130.59
2023-04-30T23:09:59.717Z,98139.75
2023-04-30T23:12:29.274Z,98132.75
2023-04-30T23:14:59.970Z,98128.50
2023-04-30T23:17:30.281Z,98139.75
2023-04-30T23:19:59.675Z,98150.91
2023-04-30T23:22:29.016Z,98155.69
2023-04-30T23:24:58.210Z,98166.44
2023-04-30T23:27:29.508Z,98163.19
2023-04-30T23:29:58.848Z,98180.28
2023-04-30T23:32:28.900Z,98181.38
2023-04-30T23:34:58.958Z,98183.78
2023-04-30T23:37:28.909Z,98190.00
2023-04-30T23:39:58.819Z,98199.50
2023-04-30T23:42:28.378Z,98205.41
2023-04-30T23:44:57.454Z,98207.28
2023-04-30T23:47:27.777Z,98200.63
2023-04-30T23:49:57.880Z,98211.16
2023-04-30T23:52:28.000Z,98213.56
2023-04-30T23:54:58.030Z,98212.81
2023-04-30T23:57:29.072Z,98208.19
2023-04-30T23:59:59.723Z,98215.81
